SECUSEQM

Guest
Details From SECU - MARISCAL LAMAR
To SEQM - Quito - Mariscal Sucre Intl
Flight Number -
Tags generated
Created
Modified
Stats Distance 171 nm / 316 km
Max Altitude 15,500 ft / 4,724 m
Waypoints 3
Social Downloads 2
Likes 0
Share VATSIM

Download

Looking for another format? Having issues loading an existing format? Contact us
Advertisement - Login to hide

Notes

Basic altitude profile: - Ascent Rate: 2500ft/min - Ascent Speed: 250kts - Cruise Altitude: 22500ft - Cruise Speed: 300kts - Descent Rate: 2500ft/min - Descent Speed: 250kts Options: - Use NATs: yes - Use PACOTS: yes - Use low airways: yes - Use high airways: yes

Route

SECU PUCRA SEQM

ID Type Via Altitude Latitude Longitude Leg Dist Tot Dist Heading (true) Name
O SECU APT - 0 ft / 0 m -2.88947˚ -78.98440˚ - 0 nm - MARISCAL LAMAR
PUCRA FIX - 15,500 ft / 4,724 m -1.28500˚ -78.69056˚ 97 nm 97 nm 10° / 10° -
O SEQM APT - 0 ft / 0 m -0.12409˚ -78.35438˚ 72 nm 170 nm 16° / 16° Quito - Mariscal Sucre Intl

Altitude Profile

Advertisement - Login to hide

Weather


0- 5 10 15 20 25 30 35+ Temperature / ° C

Clouds and Precipitation
Forecast for 2017-12-18 06:00 UTC. Updated 40 minutes ago

Ground ~20,000 ft ~40,000 ft Winds

SECU

Details ICAO SECU (CUE)
Name MARISCAL LAMAR
Region Equador
Timezone America/Guayaquil (UTC-5.0)
Stats Elevation 8,306 ft / 2,532 m (AMSL)
Location -2.889468° -78.984398°
Runways 1
Magnetic Variation 2.619° W

METAR

SECU 180400Z AUTO 16003KT 120V190 ////NDV BKN046 15/11 Q1026

Decode

TAF

Not found

Departure Runways

ID Width Length Bearing (true) Bearing (mag) Surface Threshold Offset Overrun Length
05 118 ft / 36 m 6,240 ft / 1,902 m 51.98° 54.60° Asphalt 0 ft / 0 m 141 ft / 43 m
23 118 ft / 36 m 6,240 ft / 1,902 m 231.97° 234.59° Asphalt 0 ft / 0 m 0 ft / 0 m

SEQM

Details ICAO SEQM
Name Quito - Mariscal Sucre Intl
Region Equador
Timezone America/Guayaquil (UTC-5.0)
Stats Elevation 7,841 ft / 2,390 m (AMSL)
Location -0.124089° -78.354381°
Runways 1
Magnetic Variation 3.596° W

METAR

SEQM 180400Z 10003KT 9999 SCT005 OVC012 13/13 Q1026 NOSIG RMK A3030

Decode

TAF

Not found

Destination Runways

ID Width Length Bearing (true) Bearing (mag) Surface Threshold Offset Overrun Length
18 171 ft / 52 m 13,524 ft / 4,122 m 177.61° 181.21° Asphalt 0 ft / 0 m 177 ft / 54 m
36 171 ft / 52 m 13,524 ft / 4,122 m 357.61° 1.21° Asphalt 0 ft / 0 m 184 ft / 56 m

Approach Navaids

Runway Type Ident Frequency Range Bearing (true) Bearing (mag) Slope Elevation
18 Localiser IQN 111.10 MHz 18 nm / 33 km 177.61° 181.21° - 7,841 ft / 2,390 m (AMSL)
18 Glidescope IQN 111.10 MHz 10 nm / 19 km 177.61° 181.21° 3.20° 7,841 ft / 2,390 m (AMSL)
36 Localiser IQS 109.30 MHz 18 nm / 33 km 357.61° 1.21° - 7,841 ft / 2,390 m (AMSL)
36 Glidescope IQS 109.30 MHz 10 nm / 19 km 357.61° 1.21° 3.20° 7,841 ft / 2,390 m (AMSL)

Popular Alternatives